Wilmington, OH

1:26 AM EDT on October 01, 2014 (GMT -0400)
Country Manor | Change Station
CLOSE
Current Station
Personal Weather Station
Location: Wilmington, OH
Elevation: 1004 ft
Nearby Weather Stations

Elev 1004 ft 39.44 °N, 83.90 °W | Updated 7 seconds ago

Mostly Cloudy
Mostly Cloudy
48.5 °F
Feels Like 48 °F
N
0.0
Wind Variable Wind from NNE
Gusts 0.0 mph

Today
High -- | Low -- °F
--% Chance of Precip.
Yesterday
High -- | Low -- °F
Precip. -- in
7:31 AM 7:17 PM
Waxing Crescent, 44% visible
Pressure 29.99 in
Visibility 10.0 miles
Clouds Mostly Cloudy 1500 ft
Windchill 48 °F
Dew Point 45 °F
Humidity 89%
Rainfall 0.00 in
Snow Depth Not available.
UV 0 out of 12
Pollen 3.60 out of 12
Ozone Good
Flu Activity Not available.
METAR KILN 010454Z AUTO 02005KT 10SM BKN015 09/07 A2999 RMK AO2 SLP155 T00890072 402390072

More Conditions Fewer Conditions

Pressure 29.99 in
Visibility 10.0 miles
Clouds Mostly Cloudy 1500 ft
Windchill 48 °F
Dew Point 45 °F
Humidity 89%
Rainfall 0.00 in
Snow Depth Not available.
UV 0 out of 12
Pollen 3.60 out of 12
Ozone Good
Flu Activity Not available.
METAR KILN 010454Z AUTO 02005KT 10SM BKN015 09/07 A2999 RMK AO2 SLP155 T00890072 402390072

More Conditions Fewer Conditions

10-Day Weather Forecast

Almanac

Astronomy

Oct. 01, 2014 Rise Set
Actual Time 7:31 AM EDT 7:17 PM EDT
Civil Twilight 7:04 AM EDT 7:44 PM EDT
Nautical Twilight 6:33 AM EDT 8:15 PM EDT
Astronomical Twilight 6:02 AM EDT 8:46 PM EDT
Moon 2:30 PM EDT No Moon Set
Length of Visible Light 12h 39m
Length of Day
11h 46m
Tomorrow will be 2m 34s shorter.
Waxing Crescent, 44% of the Moon is Illuminated
Today
Waxing Crescent
Oct 1
First Quarter
Oct 8
Full
Oct 15
Last Quarter
Oct 23
New

Today's Extremes

State Highs State Lows

Community

WunderPhotos

Upload Photos

1,757,857 photos uploaded!

Nearby

Air Quality

  Air Quality AQ Index Pollutant
Yesterday Good
OZONE
Yesterday Good
PM2.5
Current Good
OZONE
Tuesday Good
OZONE
Tuesday Good
PM2.5
Wednesday Good
PM2.5
Wednesday Good
OZONE
Thursday Good
PM2.5
Thursday Good
OZONE
Friday Moderate
PM2.5
Friday Good
OZONE
Saturday Good
PM2.5
Saturday Good
OZONE

Snow Depth

Station Depth Elevation
No new snow has been reported.

Earthquake Activity

City Distance Mag. Time & Date
No recent earthquake activity has been reported nearby.
Minimum magnitude displayed is 2.5.

Coastal Water Temperatures

Place Temperature
No Stations Reporting

Nearby Weather Stations